createdAt,value
2023-10-29T00:17:50.818Z,18.2
2023-10-29T00:47:51.507Z,18.2
2023-10-29T01:17:52.052Z,18.2
2023-10-29T01:47:52.788Z,18.5
2023-10-29T02:17:53.574Z,18.6
2023-10-29T02:48:04.570Z,18.5
2023-10-29T03:18:05.254Z,18.5
2023-10-29T03:48:15.870Z,18.5
2023-10-29T04:18:16.763Z,18.5
2023-10-29T04:48:17.422Z,18.6
2023-10-29T05:18:18.216Z,18.6
2023-10-29T05:48:19.470Z,18.6
2023-10-29T06:18:20.383Z,18.6
2023-10-29T06:48:21.116Z,18.6
2023-10-29T07:18:21.869Z,18.6
2023-10-29T07:48:22.672Z,18.6
2023-10-29T08:18:23.548Z,18.6
2023-10-29T08:48:24.325Z,18.5
2023-10-29T09:18:25.331Z,18.2
2023-10-29T09:48:30.894Z,18.4
2023-10-29T10:18:41.476Z,18.4
2023-10-29T10:48:42.061Z,18.4
2023-10-29T11:18:53.007Z,18.4
2023-10-29T11:48:53.410Z,18.4
2023-10-29T12:48:58.214Z,18.6
2023-10-29T13:18:58.652Z,19.1
2023-10-29T13:48:59.406Z,19.1
2023-10-29T14:18:59.860Z,19
2023-10-29T14:49:00.490Z,18.9
2023-10-29T15:19:06.390Z,18.9
2023-10-29T15:49:07.308Z,19
2023-10-29T16:19:07.739Z,19
2023-10-29T16:49:18.523Z,19
2023-10-29T17:19:18.945Z,18.9
2023-10-29T17:49:29.431Z,18.9
2023-10-29T18:19:39.876Z,18.9
2023-10-29T18:49:40.294Z,18.9
2023-10-29T19:19:41.114Z,18.9
2023-10-29T19:49:41.536Z,18.9
2023-10-29T20:19:42.377Z,18.9
2023-10-29T20:49:42.960Z,18.8
2023-10-29T21:19:43.481Z,18.8
2023-10-29T21:49:43.910Z,18.8
2023-10-29T22:19:44.334Z,18.8
2023-10-29T22:49:44.746Z,18.8
2023-10-29T23:19:45.139Z,18.8
2023-10-29T23:49:55.972Z,18.8
